Shaunavon, Canada
Current Conditions -  °F | °C
As of 6:00 AM on Thursday 18 Dec 2014 (Local Time) from CYYN Reporting Station
Clear Clear  
Wind Chill:   Ceiling: Unl
Heat Index: 21°   Visibility: 9mi
Dew Point: 21°   Wind: 13mph
Humidity: 100%   Direction: 220°SW
Pressure: 29.85"   Gusts: NA
Location:  49.65°N, 108.42°W
Report Text: CYYN 181200Z AUTO 22011KT 9SM CLR M06/M06 A2985 RMK SLP150
Loading
Personal Weather Stations






























Interactive Weather Map New forecast layout! Learn more

10-Day Weather Forecast

Advertisements
Track Severe Weather on mobile